Aeroboteco Virtual Airlines! Uma nuvem a frente.



 INFORMAÇÕES METEOROLÓGICAS
METAR FOR SBTD
ADDS - METARS form results

(1559 UTC 18 October 2019)
Data provider http://aviationweather.gov/metar/data/
 
METAR text: SBTD 181500Z 05012KT 9999 FEW045 35/16 Q1015
Conditions at: SBTD (TOLEDO , BR) observed 1500 UTC 18 October 2019
Temperature: 35.0°C (95°F)
Dewpoint: 16.0°C (61°F) [RH = 32%]
Pressure (altimeter): 29.97 inches Hg (1015.0 mb)
Winds: from the NE (50 degrees) at 14 MPH (12 knots; 6.2 m/s)
Visibility: 6 or more miles (10+ km)
Ceiling: at least 12,000 feet AGL
Clouds: few clouds at 4500 feet AGL
Weather: no significant weather observed at this time

 MAPA DO AEROPORTO

 INFORMAÇÕES DA PISTA
Pista 2 Tamanho da pista 5479 ft Largura da pista 98 ft
Elevação da pista 0 ft Ranhura da pista 0 ft Proa da pista 0
Pista 20 Tamanho da pista 5479 ft Largura da pista 98 ft
Elevação da pista 0 ft Ranhura da pista 0 ft Proa da pista 0

 FREQUÊNCIAS DO AEROPORTO
Tipo AFIS Nome RDO Frequência 131.05 MHZ

 AUXÍLIOS DE NAVEGAÇÃO PRÓXIMOS AO AEROPORTO
Tipo NDB Nome Toledo Frequência 385 KHZ